Terminal Aerodrome Forecast
Issued by NWS

Home | Current Version | Previous Version | Text Only | Print | Product List | Glossary On
Versions: 1 2 3 4 5 6 7 8 9 10 11 12 13
000
FTUS45 KRIW 231121
TAFWRL
TAF
KWRL 231121Z 2312/2412 16006KT P6SM BKN250
     FM240400 22011KT P6SM SCT250
     FM241000 31011KT P6SM BKN120=

USA.gov is the U.S. government's official web portal to all federal, state and local government web resources and services.